createdAt,value
2022-07-29T00:01:44.418Z,1.47
2022-07-29T00:04:12.870Z,2.00
2022-07-29T00:06:41.346Z,2.80
2022-07-29T00:09:09.550Z,3.40
2022-07-29T00:11:37.467Z,1.40
2022-07-29T00:14:05.544Z,1.73
2022-07-29T00:16:33.496Z,1.20
2022-07-29T00:19:02.874Z,1.63
2022-07-29T00:21:31.086Z,1.50
2022-07-29T00:23:59.043Z,1.70
2022-07-29T00:26:28.736Z,1.60
2022-07-29T00:29:30.702Z,2.73
2022-07-29T00:31:44.551Z,1.87
2022-07-29T00:34:27.766Z,1.80
2022-07-29T00:36:55.668Z,1.83
2022-07-29T00:39:23.617Z,1.20
2022-07-29T00:41:51.645Z,2.07
2022-07-29T00:44:19.566Z,1.47
2022-07-29T00:46:47.543Z,1.30
2022-07-29T00:49:16.874Z,1.30
2022-07-29T00:51:45.032Z,1.40
2022-07-29T00:54:14.961Z,1.40
2022-07-29T00:56:43.012Z,1.50
2022-07-29T00:59:10.864Z,1.60
2022-07-29T01:01:38.874Z,1.47
2022-07-29T01:04:08.372Z,1.50
2022-07-29T01:06:38.022Z,1.40
2022-07-29T01:09:06.295Z,1.47
2022-07-29T01:11:35.379Z,1.97
2022-07-29T01:14:03.745Z,1.43
2022-07-29T01:16:34.394Z,1.47
2022-07-29T01:19:09.444Z,1.60
2022-07-29T01:21:53.455Z,1.83
2022-07-29T01:24:45.978Z,1.93
2022-07-29T01:27:32.664Z,1.40
2022-07-29T01:30:05.206Z,1.20
2022-07-29T01:32:37.534Z,3.17
2022-07-29T01:35:07.371Z,1.30
2022-07-29T01:37:41.352Z,1.97
2022-07-29T01:40:17.725Z,1.30
2022-07-29T01:42:50.409Z,1.70
2022-07-29T01:45:25.382Z,1.77
2022-07-29T01:48:00.589Z,1.23
2022-07-29T01:50:33.626Z,1.37
2022-07-29T01:53:04.413Z,2.53
2022-07-29T01:55:36.569Z,2.73
2022-07-29T01:58:06.508Z,1.67
2022-07-29T02:00:37.804Z,1.60
2022-07-29T02:03:11.190Z,1.53
2022-07-29T02:05:40.997Z,1.60
2022-07-29T02:08:10.092Z,1.80
2022-07-29T02:10:40.722Z,2.03
2022-07-29T02:13:09.683Z,2.20
2022-07-29T02:15:39.607Z,1.40
2022-07-29T02:18:11.584Z,1.60
2022-07-29T02:20:41.022Z,1.70
2022-07-29T02:23:12.370Z,1.63
2022-07-29T02:25:43.008Z,1.33
2022-07-29T02:28:10.976Z,2.90
2022-07-29T02:30:43.891Z,1.10
2022-07-29T02:33:16.578Z,1.50
2022-07-29T02:35:46.824Z,1.53
2022-07-29T02:38:33.958Z,2.03
2022-07-29T02:41:05.609Z,4.37
2022-07-29T02:43:35.822Z,4.70
2022-07-29T02:46:12.756Z,1.40
2022-07-29T02:49:00.250Z,1.60
2022-07-29T02:51:43.771Z,3.40
2022-07-29T02:54:17.156Z,1.47
2022-07-29T02:56:47.270Z,1.20
2022-07-29T02:59:17.721Z,1.20
2022-07-29T03:01:47.785Z,2.13
2022-07-29T03:04:18.170Z,1.73
2022-07-29T03:06:47.800Z,1.53
2022-07-29T03:09:15.883Z,1.60
2022-07-29T03:11:49.212Z,1.53
2022-07-29T03:14:20.355Z,2.17
2022-07-29T03:16:50.890Z,1.90
2022-07-29T03:19:19.222Z,1.30
2022-07-29T03:21:47.149Z,1.50
2022-07-29T03:24:27.350Z,1.43
2022-07-29T03:26:57.118Z,1.60
2022-07-29T03:29:25.125Z,1.43
2022-07-29T03:32:06.014Z,1.40
2022-07-29T03:34:35.597Z,1.27
2022-07-29T03:37:03.477Z,1.40
2022-07-29T03:39:36.710Z,3.17
2022-07-29T03:42:08.882Z,3.20
2022-07-29T03:44:38.182Z,1.57
2022-07-29T03:47:08.985Z,1.67
2022-07-29T03:49:39.590Z,1.60
2022-07-29T03:52:07.827Z,1.57
2022-07-29T03:54:36.065Z,1.63
2022-07-29T03:57:05.507Z,1.70
2022-07-29T03:59:35.760Z,1.43
2022-07-29T04:02:05.355Z,1.60
2022-07-29T04:04:37.034Z,2.00
2022-07-29T04:07:05.413Z,1.70
2022-07-29T04:09:33.449Z,2.33
2022-07-29T04:12:03.729Z,2.00
2022-07-29T04:14:33.155Z,1.97
2022-07-29T04:17:01.446Z,1.80
2022-07-29T04:19:29.471Z,3.40
2022-07-29T04:21:59.814Z,1.90
2022-07-29T04:24:28.195Z,1.87
2022-07-29T04:26:56.405Z,3.10
2022-07-29T04:29:24.306Z,4.23
2022-07-29T04:31:52.341Z,4.10
2022-07-29T04:34:20.588Z,5.40
2022-07-29T04:36:48.811Z,2.10
2022-07-29T04:39:22.741Z,1.60
2022-07-29T04:41:52.603Z,2.60
2022-07-29T04:44:28.457Z,2.43
2022-07-29T04:46:57.975Z,1.77
2022-07-29T04:49:26.433Z,1.90
2022-07-29T04:51:54.342Z,4.23
2022-07-29T04:54:23.726Z,1.80
2022-07-29T04:56:52.749Z,1.93
2022-07-29T04:59:20.641Z,1.50
2022-07-29T05:01:48.599Z,1.97
2022-07-29T05:04:17.042Z,2.20
2022-07-29T05:06:45.303Z,1.80
2022-07-29T05:09:13.210Z,1.73
2022-07-29T05:11:42.474Z,3.90
2022-07-29T05:14:10.431Z,1.80
2022-07-29T05:16:40.085Z,2.53
2022-07-29T05:19:13.664Z,3.03
2022-07-29T05:21:42.232Z,2.43
2022-07-29T05:24:10.371Z,3.07
2022-07-29T05:26:38.276Z,11.60
2022-07-29T05:29:07.493Z,13.23
2022-07-29T05:31:55.374Z,6.10
2022-07-29T05:34:23.369Z,8.87
2022-07-29T05:36:51.855Z,13.10
2022-07-29T05:39:20.093Z,6.80
2022-07-29T05:41:51.850Z,14.13
2022-07-29T05:44:21.398Z,9.17
2022-07-29T05:46:53.297Z,8.90
2022-07-29T05:49:26.845Z,7.30
2022-07-29T05:51:55.271Z,4.03
2022-07-29T05:54:23.187Z,2.70
2022-07-29T05:56:51.061Z,2.90
2022-07-29T05:59:18.975Z,5.27
2022-07-29T06:01:48.315Z,3.50
2022-07-29T06:04:16.679Z,2.97
2022-07-29T06:06:44.914Z,3.43
2022-07-29T06:09:14.364Z,2.13
2022-07-29T06:11:42.493Z,3.83
2022-07-29T06:14:10.458Z,3.23
2022-07-29T06:16:38.624Z,3.00
2022-07-29T06:19:08.216Z,3.23
2022-07-29T06:21:38.679Z,6.03
2022-07-29T06:24:10.531Z,6.40
2022-07-29T06:26:39.997Z,3.70
2022-07-29T06:29:08.068Z,2.20
2022-07-29T06:31:36.444Z,3.20
2022-07-29T06:34:04.468Z,2.30
2022-07-29T06:36:36.711Z,2.90
2022-07-29T06:39:08.089Z,4.30
2022-07-29T06:41:36.386Z,2.77
2022-07-29T06:44:05.508Z,2.70
2022-07-29T06:46:33.738Z,1.93
2022-07-29T06:49:03.242Z,2.43
2022-07-29T06:51:31.229Z,1.77
2022-07-29T06:54:02.635Z,2.70
2022-07-29T06:56:38.087Z,2.60
2022-07-29T06:59:07.207Z,2.30
2022-07-29T07:01:35.230Z,4.63
2022-07-29T07:04:03.353Z,1.87
2022-07-29T07:06:31.291Z,2.20
2022-07-29T07:09:00.568Z,2.37
2022-07-29T07:11:28.566Z,1.80
2022-07-29T07:14:02.268Z,1.80
2022-07-29T07:16:31.789Z,1.70
2022-07-29T07:18:59.821Z,1.97
2022-07-29T07:21:30.346Z,1.40
2022-07-29T07:24:00.554Z,1.70
2022-07-29T07:26:28.989Z,1.77
2022-07-29T07:28:56.950Z,3.10
2022-07-29T07:31:24.993Z,1.50
2022-07-29T07:33:54.240Z,1.53
2022-07-29T07:36:22.162Z,1.58
2022-07-29T07:38:50.554Z,1.33
2022-07-29T07:41:19.760Z,1.80
2022-07-29T07:43:47.785Z,1.10
2022-07-29T07:46:15.856Z,1.23
2022-07-29T07:48:43.895Z,1.40
2022-07-29T07:51:12.594Z,1.50
2022-07-29T07:53:40.834Z,1.85
2022-07-29T07:56:11.868Z,2.92
2022-07-29T07:58:41.906Z,1.92
2022-07-29T08:01:10.312Z,1.92
2022-07-29T08:03:38.815Z,1.33
2022-07-29T08:06:07.141Z,1.90
2022-07-29T08:08:35.027Z,1.92
2022-07-29T08:11:09.069Z,1.45
2022-07-29T08:13:38.716Z,2.58
2022-07-29T08:16:15.964Z,1.52
2022-07-29T08:18:44.929Z,1.33
2022-07-29T08:21:15.153Z,1.60
2022-07-29T08:23:56.194Z,1.58
2022-07-29T08:26:26.967Z,1.40
2022-07-29T08:28:54.940Z,2.08
2022-07-29T08:31:24.272Z,1.52
2022-07-29T08:33:52.228Z,1.80
2022-07-29T08:36:21.779Z,1.42
2022-07-29T08:38:50.365Z,1.50
2022-07-29T08:41:19.855Z,3.78
2022-07-29T08:43:47.824Z,1.40
2022-07-29T08:46:15.847Z,1.40
2022-07-29T08:48:45.580Z,1.75
2022-07-29T08:51:16.642Z,1.58
2022-07-29T08:53:46.129Z,1.88
2022-07-29T08:56:14.517Z,1.67
2022-07-29T08:58:43.080Z,1.70
2022-07-29T09:01:17.362Z,1.80
2022-07-29T09:03:49.338Z,1.52
2022-07-29T09:06:19.086Z,1.90
2022-07-29T09:08:47.389Z,2.65
2022-07-29T09:11:16.130Z,1.90
2022-07-29T09:13:44.076Z,1.90
2022-07-29T09:16:12.067Z,1.90
2022-07-29T09:18:41.498Z,3.50
2022-07-29T09:21:31.748Z,2.10
2022-07-29T09:24:05.111Z,2.13
2022-07-29T09:26:33.912Z,2.05
2022-07-29T09:29:09.134Z,2.08
2022-07-29T09:31:39.080Z,1.92
2022-07-29T09:34:09.033Z,2.78
2022-07-29T09:36:49.002Z,1.73
2022-07-29T09:39:28.078Z,1.95
2022-07-29T09:41:58.162Z,2.05
2022-07-29T09:44:26.835Z,2.75
2022-07-29T09:46:57.193Z,2.60
2022-07-29T09:49:25.729Z,3.37
2022-07-29T09:52:06.549Z,2.77
2022-07-29T09:54:37.774Z,2.50
2022-07-29T09:57:07.437Z,3.70
2022-07-29T09:59:35.379Z,3.13
2022-07-29T10:02:03.377Z,2.90
2022-07-29T10:04:41.318Z,2.20
2022-07-29T10:07:11.265Z,2.80
2022-07-29T10:09:39.190Z,2.30
2022-07-29T10:12:10.033Z,2.87
2022-07-29T10:14:39.112Z,3.30
2022-07-29T10:17:08.262Z,2.60
2022-07-29T10:19:38.166Z,2.90
2022-07-29T10:22:08.136Z,2.50
2022-07-29T10:24:38.318Z,3.00
2022-07-29T10:27:08.769Z,2.67
2022-07-29T10:29:37.196Z,2.90
2022-07-29T10:32:31.474Z,2.93
2022-07-29T10:35:10.539Z,3.30
2022-07-29T10:37:55.078Z,2.73
2022-07-29T10:40:57.371Z,2.90
2022-07-29T10:43:29.906Z,2.97
2022-07-29T10:46:01.480Z,3.07
2022-07-29T10:48:30.036Z,2.77
2022-07-29T10:50:59.797Z,3.23
2022-07-29T10:53:49.920Z,2.83
2022-07-29T10:56:29.798Z,2.93
2022-07-29T10:59:27.133Z,3.50
2022-07-29T11:02:35.500Z,3.47
2022-07-29T11:05:02.393Z,3.97
2022-07-29T11:07:45.579Z,4.90
2022-07-29T11:10:26.937Z,4.33
2022-07-29T11:12:59.524Z,3.30
2022-07-29T11:15:28.563Z,3.33
2022-07-29T11:18:15.200Z,4.07
2022-07-29T11:20:48.154Z,3.37
2022-07-29T11:23:24.427Z,4.97
2022-07-29T11:26:23.415Z,3.87
2022-07-29T11:28:56.011Z,3.23
2022-07-29T11:31:39.706Z,3.30
2022-07-29T11:34:27.881Z,3.13
2022-07-29T11:40:20.142Z,3.30
2022-07-29T11:42:52.331Z,3.10
2022-07-29T11:45:42.946Z,3.27
2022-07-29T11:48:29.752Z,3.23
2022-07-29T11:51:01.025Z,2.73
2022-07-29T11:53:32.512Z,4.43
2022-07-29T11:56:02.635Z,3.30
2022-07-29T11:58:33.483Z,2.77
2022-07-29T12:01:04.881Z,3.60
2022-07-29T12:03:36.338Z,2.97
2022-07-29T12:06:07.585Z,3.60
2022-07-29T12:07:03.555Z,3.33
2022-07-29T12:08:43.320Z,3.70
2022-07-29T12:11:20.369Z,3.17
2022-07-29T12:13:51.304Z,3.77
2022-07-29T12:16:28.009Z,2.73
2022-07-29T12:18:58.750Z,3.07
2022-07-29T12:21:28.702Z,2.80
2022-07-29T12:24:04.842Z,3.00
2022-07-29T12:26:37.225Z,2.97
2022-07-29T12:29:08.501Z,3.13
2022-07-29T12:31:45.366Z,3.00
2022-07-29T12:34:14.722Z,2.37
2022-07-29T12:36:43.701Z,2.57
2022-07-29T12:39:13.309Z,2.80
2022-07-29T12:41:41.325Z,2.30
2022-07-29T12:44:10.756Z,3.10
2022-07-29T12:46:39.612Z,3.30
2022-07-29T12:49:07.654Z,2.50
2022-07-29T12:51:37.857Z,3.20
2022-07-29T12:54:08.513Z,2.70
2022-07-29T12:56:44.915Z,2.60
2022-07-29T12:59:19.258Z,2.70
2022-07-29T13:01:48.021Z,2.50
2022-07-29T13:04:27.742Z,4.27
2022-07-29T13:07:01.670Z,3.70
2022-07-29T13:09:39.634Z,2.93
2022-07-29T13:12:10.868Z,2.30
2022-07-29T13:14:42.526Z,3.87
2022-07-29T13:17:12.452Z,2.30
2022-07-29T13:19:42.322Z,2.70
2022-07-29T13:22:10.857Z,2.73
2022-07-29T13:24:50.065Z,2.87
2022-07-29T13:27:18.099Z,2.87
2022-07-29T13:29:47.502Z,2.30
2022-07-29T13:32:15.781Z,3.63
2022-07-29T13:34:43.650Z,3.23
2022-07-29T13:37:11.659Z,2.87
2022-07-29T13:39:39.980Z,3.70
2022-07-29T13:42:11.100Z,2.87
2022-07-29T13:44:39.205Z,2.53
2022-07-29T13:47:08.921Z,3.70
2022-07-29T13:49:37.518Z,2.97
2022-07-29T13:52:08.123Z,2.47
2022-07-29T13:54:42.079Z,3.10
2022-07-29T13:57:11.474Z,3.20
2022-07-29T13:59:40.040Z,3.10
2022-07-29T14:02:09.565Z,3.60
2022-07-29T14:04:39.720Z,3.10
2022-07-29T14:07:09.058Z,4.90
2022-07-29T14:09:41.602Z,3.27
2022-07-29T14:12:10.679Z,3.10
2022-07-29T14:14:38.668Z,4.63
2022-07-29T14:17:08.205Z,4.63
2022-07-29T14:19:38.827Z,3.33
2022-07-29T14:22:08.550Z,3.67
2022-07-29T14:24:37.655Z,3.00
2022-07-29T14:27:06.102Z,2.70
2022-07-29T14:29:35.201Z,3.03
2022-07-29T14:32:06.693Z,3.67
2022-07-29T14:34:35.153Z,2.80
2022-07-29T14:37:06.197Z,2.70
2022-07-29T14:39:36.956Z,3.37
2022-07-29T14:42:08.843Z,2.70
2022-07-29T14:44:37.173Z,3.30
2022-07-29T14:47:08.096Z,3.80
2022-07-29T14:49:36.371Z,4.03
2022-07-29T14:52:06.857Z,3.60
2022-07-29T14:54:34.833Z,2.90
2022-07-29T14:57:02.692Z,3.13
2022-07-29T14:59:30.720Z,5.63
2022-07-29T15:01:58.932Z,3.00
2022-07-29T15:04:27.241Z,3.07
2022-07-29T15:06:55.162Z,4.43
2022-07-29T15:09:25.548Z,4.17
2022-07-29T15:11:53.619Z,3.17
2022-07-29T15:14:21.541Z,4.37
2022-07-29T15:16:49.676Z,3.00
2022-07-29T15:19:21.015Z,5.33
2022-07-29T15:21:49.501Z,2.80
2022-07-29T15:24:17.803Z,2.50
2022-07-29T15:26:47.527Z,2.60
2022-07-29T15:29:16.121Z,2.47
2022-07-29T15:31:44.570Z,3.40
2022-07-29T15:34:12.606Z,2.37
2022-07-29T15:36:56.302Z,3.47
2022-07-29T15:39:24.357Z,2.93
2022-07-29T15:41:53.817Z,3.80
2022-07-29T15:44:22.247Z,2.63
2022-07-29T15:47:06.053Z,3.60
2022-07-29T15:49:47.289Z,2.53
2022-07-29T15:52:18.887Z,2.83
2022-07-29T15:54:46.877Z,3.53
2022-07-29T15:57:16.180Z,3.60
2022-07-29T15:59:44.053Z,2.57
2022-07-29T16:02:12.142Z,3.57
2022-07-29T16:04:40.154Z,2.53
2022-07-29T16:07:08.444Z,3.40
2022-07-29T16:09:36.400Z,2.97
2022-07-29T16:12:05.229Z,3.60
2022-07-29T16:14:44.613Z,4.30
2022-07-29T16:17:14.251Z,4.43
2022-07-29T16:19:43.261Z,3.93
2022-07-29T16:22:11.416Z,3.37
2022-07-29T16:24:39.723Z,4.60
2022-07-29T16:27:07.698Z,3.30
2022-07-29T16:29:36.859Z,3.33
2022-07-29T16:32:06.774Z,3.73
2022-07-29T16:34:34.934Z,3.10
2022-07-29T16:37:03.308Z,3.30
2022-07-29T16:39:31.462Z,3.00
2022-07-29T16:42:01.532Z,3.63
2022-07-29T16:44:31.255Z,3.40
2022-07-29T16:47:00.149Z,3.40
2022-07-29T16:49:29.939Z,2.80
2022-07-29T16:51:57.928Z,2.73
2022-07-29T16:54:26.784Z,5.00
2022-07-29T16:56:55.964Z,3.53
2022-07-29T16:59:24.145Z,3.67
2022-07-29T17:01:52.059Z,5.13
2022-07-29T17:04:20.014Z,3.10
2022-07-29T17:06:52.473Z,3.70
2022-07-29T17:09:20.989Z,3.33
2022-07-29T17:11:54.871Z,3.23
2022-07-29T17:14:25.536Z,2.80
2022-07-29T17:17:00.574Z,3.27
2022-07-29T17:19:31.350Z,2.80
2022-07-29T17:22:09.489Z,3.50
2022-07-29T17:24:41.010Z,4.47
2022-07-29T17:27:09.422Z,4.20
2022-07-29T17:29:37.446Z,3.17
2022-07-29T17:32:07.741Z,4.03
2022-07-29T17:34:36.142Z,5.03
2022-07-29T17:37:05.729Z,2.97
2022-07-29T17:39:35.115Z,3.00
2022-07-29T17:42:03.137Z,2.83
2022-07-29T17:44:31.448Z,3.07
2022-07-29T17:47:01.395Z,2.70
2022-07-29T17:49:29.705Z,2.87
2022-07-29T17:52:00.728Z,4.20
2022-07-29T17:54:30.478Z,3.40
2022-07-29T17:56:58.613Z,4.50
2022-07-29T17:59:27.063Z,2.73
2022-07-29T18:01:55.059Z,3.30
2022-07-29T18:04:23.604Z,2.50
2022-07-29T18:06:52.165Z,2.77
2022-07-29T18:09:20.088Z,3.00
2022-07-29T18:11:49.667Z,3.30
2022-07-29T18:14:18.149Z,2.97
2022-07-29T18:16:46.051Z,2.73
2022-07-29T18:19:14.221Z,3.03
2022-07-29T18:21:45.817Z,3.00
2022-07-29T18:24:19.362Z,3.47
2022-07-29T18:26:47.318Z,3.30
2022-07-29T18:29:16.599Z,4.73
2022-07-29T18:31:44.604Z,4.03
2022-07-29T18:34:12.636Z,3.23
2022-07-29T18:36:40.560Z,2.53
2022-07-29T18:39:08.497Z,2.57
2022-07-29T18:41:38.801Z,3.23
2022-07-29T18:44:22.021Z,3.53
2022-07-29T18:46:50.988Z,2.67
2022-07-29T18:49:19.551Z,2.80
2022-07-29T18:51:47.576Z,2.70
2022-07-29T18:54:15.505Z,2.90
2022-07-29T18:56:43.397Z,3.23
2022-07-29T18:59:11.413Z,2.90
2022-07-29T19:01:40.774Z,2.43
2022-07-29T19:04:08.720Z,3.03
2022-07-29T19:06:36.753Z,2.90
2022-07-29T19:09:05.073Z,5.63
2022-07-29T19:11:32.960Z,3.60
2022-07-29T19:14:01.178Z,2.27
2022-07-29T19:16:29.320Z,2.67
2022-07-29T19:19:00.832Z,2.23
2022-07-29T19:21:29.628Z,2.00
2022-07-29T19:24:02.511Z,2.83
2022-07-29T19:26:39.236Z,2.60
2022-07-29T19:29:07.169Z,3.17
2022-07-29T19:31:35.165Z,2.90
2022-07-29T19:34:04.507Z,2.43
2022-07-29T19:36:32.415Z,2.00
2022-07-29T19:39:00.482Z,2.03
2022-07-29T19:41:28.776Z,1.93
2022-07-29T19:43:57.237Z,2.80
2022-07-29T19:46:28.809Z,2.43
2022-07-29T19:48:57.300Z,3.90
2022-07-29T19:51:26.929Z,1.97
2022-07-29T19:53:54.882Z,1.87
2022-07-29T19:56:25.235Z,2.47
2022-07-29T19:58:53.471Z,2.33
2022-07-29T20:01:21.598Z,3.20
2022-07-29T20:03:49.891Z,1.63
2022-07-29T20:06:17.871Z,2.53
2022-07-29T20:08:47.110Z,3.30
2022-07-29T20:11:14.994Z,2.20
2022-07-29T20:13:42.933Z,2.23
2022-07-29T20:16:10.867Z,1.80
2022-07-29T20:18:38.852Z,1.50
2022-07-29T20:21:06.757Z,2.40
2022-07-29T20:23:34.698Z,2.13
2022-07-29T20:26:08.700Z,1.90
2022-07-29T20:28:40.021Z,2.80
2022-07-29T20:31:08.670Z,1.90
2022-07-29T20:33:36.727Z,1.50
2022-07-29T20:36:05.196Z,1.90
2022-07-29T20:38:33.119Z,3.07
2022-07-29T20:41:00.986Z,2.00
2022-07-29T20:43:30.304Z,1.90
2022-07-29T20:46:04.162Z,1.70
2022-07-29T20:48:32.148Z,3.10
2022-07-29T20:50:59.977Z,1.87
2022-07-29T20:53:27.897Z,1.80
2022-07-29T20:55:55.960Z,1.90
2022-07-29T20:58:23.916Z,2.13
2022-07-29T21:00:53.141Z,2.10
2022-07-29T21:03:21.068Z,3.47
2022-07-29T21:05:49.069Z,2.63
2022-07-29T21:08:16.983Z,2.13
2022-07-29T21:10:45.039Z,2.57
2022-07-29T21:13:13.976Z,2.17
2022-07-29T21:15:44.020Z,3.30
2022-07-29T21:18:27.023Z,3.17
2022-07-29T21:20:55.016Z,2.60
2022-07-29T21:23:22.986Z,2.30
2022-07-29T21:25:51.372Z,2.37
2022-07-29T21:28:27.334Z,1.90
2022-07-29T21:30:55.430Z,2.27
2022-07-29T21:33:24.863Z,2.00
2022-07-29T21:38:41.281Z,1.80
2022-07-29T21:41:10.758Z,1.70
2022-07-29T21:43:41.972Z,1.40
2022-07-29T21:46:10.505Z,1.80
2022-07-29T21:48:44.019Z,1.70
2022-07-29T21:51:12.521Z,1.57
2022-07-29T21:53:40.446Z,2.33
2022-07-29T21:56:10.951Z,1.70
2022-07-29T21:58:43.069Z,2.00
2022-07-29T22:01:11.046Z,2.00
2022-07-29T22:03:40.345Z,1.87
2022-07-29T22:06:08.450Z,2.40
2022-07-29T22:08:40.156Z,1.77
2022-07-29T22:11:08.176Z,1.80
2022-07-29T22:13:36.986Z,2.90
2022-07-29T22:16:05.486Z,2.10
2022-07-29T22:18:33.567Z,4.03
2022-07-29T22:21:02.810Z,2.60
2022-07-29T22:23:30.683Z,1.60
2022-07-29T22:25:58.589Z,1.90
2022-07-29T22:28:26.504Z,2.47
2022-07-29T22:30:54.392Z,3.90
2022-07-29T22:33:23.766Z,3.60
2022-07-29T22:35:51.669Z,2.03
2022-07-29T22:38:20.927Z,1.40
2022-07-29T22:40:50.614Z,2.03
2022-07-29T22:43:18.830Z,2.00
2022-07-29T22:45:46.852Z,1.90
2022-07-29T22:48:14.877Z,2.17
2022-07-29T22:50:42.888Z,1.80
2022-07-29T22:53:10.797Z,1.70
2022-07-29T22:55:40.081Z,1.73
2022-07-29T22:58:07.950Z,2.27
2022-07-29T23:00:36.131Z,2.50
2022-07-29T23:03:04.165Z,1.73
2022-07-29T23:05:32.561Z,1.87
2022-07-29T23:08:00.456Z,1.87
2022-07-29T23:10:28.538Z,1.37
2022-07-29T23:12:57.796Z,2.50
2022-07-29T23:15:25.748Z,1.70
2022-07-29T23:17:53.669Z,3.00
2022-07-29T23:20:21.570Z,2.23
2022-07-29T23:22:49.464Z,1.63
2022-07-29T23:25:17.377Z,2.07
2022-07-29T23:27:45.273Z,2.10
2022-07-29T23:30:14.997Z,2.40
2022-07-29T23:32:42.896Z,1.73
2022-07-29T23:35:11.313Z,1.87
2022-07-29T23:37:39.270Z,3.00
2022-07-29T23:40:12.274Z,1.90
2022-07-29T23:42:43.137Z,2.00
2022-07-29T23:45:12.697Z,1.87
2022-07-29T23:47:41.973Z,1.70
2022-07-29T23:50:12.412Z,3.17
2022-07-29T23:52:41.333Z,3.27
2022-07-29T23:55:38.108Z,1.97
2022-07-29T23:57:57.796Z,2.50
